Time;durP1;ratioP1;P1;durP2;ratioP2;P2;SDS_P1;SDS_P2;PMS_P1;PMS_P2;Temp;Humidity;BMP_temperature;BMP_pressure;BME280_temperature;BME280_humidity;BME280_pressure;Samples;Min_cycle;Max_cycle;Signal;HPM_P1;HPM_P2
2022/11/30 04:53:19;;;;;;;23.75;8.70;;;6.80;99.90;;;;;;6427174;22;20033;-91
2022/11/30 04:56:25;;;;;;;20.35;8.30;;;6.70;99.90;;;;;;6400782;22;20029;-93
2022/11/30 04:59:07;;;;;;;22.60;9.63;;;6.70;99.90;;;;;;6400408;22;20021;-93
2022/11/30 11:05:30;;;;;;;18.27;7.47;;;6.80;99.90;;;;;;6337751;22;20023;-94
2022/11/30 11:08:02;;;;;;;17.02;8.60;;;6.80;99.90;;;;;;6256732;22;20023;-95
2022/11/30 11:10:50;;;;;;;20.67;8.50;;;6.90;99.90;;;;;;6259453;22;20022;-96
2022/11/30 11:13:37;;;;;;;21.42;8.43;;;6.90;99.90;;;;;;6257468;22;20015;-95
2022/11/30 14:29:52;;;;;;;30.00;11.43;;;6.70;99.90;;;;;;6407658;22;20029;-93
2022/11/30 14:40:06;;;;;;;31.83;12.75;;;6.70;99.90;;;;;;6370252;22;20071;-93
2022/11/30 14:42:33;;;;;;;30.88;12.23;;;6.60;99.90;;;;;;6318680;22;20397;-95
2022/11/30 16:49:11;;;;;;;33.72;13.00;;;6.40;99.90;;;;;;6418889;22;20018;-87
2022/11/30 16:51:57;;;;;;;37.07;12.07;;;6.50;99.90;;;;;;6370633;22;20021;-90
2022/11/30 17:46:23;;;;;;;31.70;11.40;;;6.50;99.90;;;;;;6403323;22;20022;-95
2022/11/30 17:48:49;;;;;;;32.93;13.50;;;6.50;99.90;;;;;;6376069;22;20320;-94
2022/11/30 18:00:08;;;;;;;28.02;11.32;;;6.60;99.90;;;;;;6345231;22;20432;-93
2022/11/30 18:02:34;;;;;;;34.42;12.30;;;6.50;99.90;;;;;;6297865;22;20046;-88
2022/11/30 18:05:10;;;;;;;;;;;;;;;;;;;;;
2022/11/30 18:13:38;;;;;;;34.22;12.45;;;6.50;99.90;;;;;;6340133;22;20034;-93
2022/11/30 18:16:28;;;;;;;;;;;6.50;99.90;;;;;;6294627;22;20018;-93
2022/11/30 18:18:56;;;;;;;31.42;11.68;;;6.50;99.90;;;;;;6292789;22;19922;-96
2022/11/30 18:21:23;;;;;;;32.47;12.10;;;6.50;99.90;;;;;;6286159;22;20104;-92
2022/11/30 18:23:49;;;;;;;36.67;11.45;;;6.50;99.90;;;;;;6289433;22;20064;-90
2022/11/30 18:26:18;;;;;;;35.50;11.80;;;6.50;99.90;;;;;;6264249;22;20015;-90
2022/11/30 18:28:45;;;;;;;30.02;11.85;;;6.60;99.90;;;;;;6288871;22;20066;-96
2022/11/30 18:31:11;;;;;;;36.10;13.75;;;6.50;99.90;;;;;;6261356;22;20011;-96
2022/11/30 18:33:37;;;;;;;30.65;11.70;;;6.60;99.90;;;;;;6285622;22;20071;-92
2022/11/30 18:39:32;;;;;;;37.35;12.70;;;6.60;99.90;;;;;;6351859;22;20032;-89
2022/11/30 18:54:55;;;;;;;31.52;12.75;;;6.60;99.90;;;;;;6383754;22;20047;-86
2022/11/30 18:58:12;;;;;;;35.10;11.63;;;6.60;99.90;;;;;;6342808;22;20025;-86
2022/11/30 19:00:44;;;;;;;35.58;12.35;;;6.50;99.90;;;;;;6334956;22;20021;-88
2022/11/30 19:03:39;;;;;;;29.30;12.43;;;6.50;99.90;;;;;;6298656;22;20069;-96
2022/11/30 19:27:07;;;;;;;31.63;13.50;;;6.50;99.90;;;;;;6409345;22;20033;-89
2022/11/30 19:30:25;;;;;;;33.60;14.60;;;6.50;99.90;;;;;;6384041;22;20042;-91
2022/11/30 19:32:51;;;;;;;37.42;14.52;;;6.50;99.90;;;;;;6378929;22;20013;-88
2022/11/30 19:35:17;;;;;;;31.70;11.95;;;6.50;99.90;;;;;;6380588;22;20029;-88
2022/11/30 19:37:43;;;;;;;35.87;14.17;;;6.50;99.90;;;;;;6377557;22;20009;-90
2022/11/30 19:40:09;;;;;;;29.37;12.13;;;6.50;99.90;;;;;;6378469;22;20450;-88
2022/11/30 19:42:35;;;;;;;34.05;13.43;;;6.50;99.90;;;;;;6350197;22;20447;-88
2022/11/30 19:45:01;;;;;;;35.03;13.40;;;6.50;99.90;;;;;;6350968;22;20024;-88
2022/11/30 19:47:26;;;;;;;34.23;12.33;;;6.50;99.90;;;;;;6388413;22;20014;-92
2022/11/30 19:49:52;;;;;;;32.17;12.70;;;6.50;99.90;;;;;;6356751;22;20018;-89
2022/11/30 19:52:19;;;;;;;36.13;13.90;;;6.50;99.90;;;;;;6387332;22;20018;-89
2022/11/30 19:54:45;;;;;;;37.58;13.35;;;6.50;99.90;;;;;;6382662;22;20403;-90
2022/11/30 19:57:10;;;;;;;35.33;14.37;;;6.50;99.90;;;;;;6387280;22;20018;-92
2022/11/30 19:59:39;;;;;;;37.00;12.97;;;6.50;99.90;;;;;;6383488;22;20092;-88
2022/11/30 20:02:31;;;;;;;29.85;12.25;;;6.50;99.90;;;;;;6384496;22;20017;-90
2022/11/30 20:05:05;;;;;;;36.13;14.73;;;6.50;99.90;;;;;;6406013;22;20018;-91
2022/11/30 20:07:35;;;;;;;34.75;13.90;;;6.50;99.90;;;;;;6401281;22;20014;-90
2022/11/30 20:10:01;;;;;;;33.70;13.88;;;6.50;99.90;;;;;;6379129;22;20014;-93
2022/11/30 20:12:29;;;;;;;31.23;11.87;;;6.50;99.90;;;;;;6353964;22;20070;-90
2022/11/30 20:15:50;;;;;;;37.55;13.80;;;6.50;99.90;;;;;;6385870;22;20139;-90
2022/11/30 20:18:18;;;;;;;33.38;12.13;;;6.50;99.90;;;;;;6253473;22;20083;-90
2022/11/30 20:20:47;;;;;;;35.28;13.10;;;6.50;99.90;;;;;;6353950;22;20046;-90
2022/11/30 20:23:13;;;;;;;35.10;12.88;;;6.50;99.90;;;;;;6379145;22;20459;-90
2022/11/30 20:35:03;;;;;;;;;;;;;;;;;;;;;
2022/11/30 20:37:34;;;;;;;40.00;13.07;;;6.50;99.90;;;;;;6409118;22;20024;-92
2022/11/30 20:39:59;;;;;;;38.67;12.85;;;6.40;99.90;;;;;;6383569;22;20009;-89
2022/11/30 20:42:25;;;;;;;35.23;12.27;;;6.50;99.90;;;;;;6350751;22;20061;-93
2022/11/30 20:44:51;;;;;;;32.90;12.93;;;6.50;99.90;;;;;;6350155;22;20013;-90
2022/11/30 20:47:17;;;;;;;35.67;13.77;;;6.50;99.90;;;;;;6350070;22;20101;-89
2022/11/30 20:49:43;;;;;;;35.95;13.02;;;6.50;99.90;;;;;;6350880;22;20017;-90
2022/11/30 20:52:08;;;;;;;37.97;14.20;;;6.40;99.90;;;;;;6378936;22;20017;-90
2022/11/30 20:54:34;;;;;;;32.03;12.77;;;6.50;99.90;;;;;;6326736;22;20021;-95
2022/11/30 20:57:01;;;;;;;30.15;11.88;;;6.50;99.90;;;;;;6357627;22;20014;-94
2022/11/30 21:02:04;;;;;;;37.58;13.52;;;6.50;99.90;;;;;;6377680;22;20019;-89
2022/11/30 21:04:29;;;;;;;35.63;12.88;;;6.40;99.90;;;;;;6326947;22;20022;-89
2022/11/30 21:06:55;;;;;;;34.50;13.10;;;6.50;99.90;;;;;;6331479;22;20063;-89
2022/11/30 21:09:21;;;;;;;29.53;12.53;;;6.50;99.90;;;;;;6330394;22;20072;-93
2022/11/30 21:11:47;;;;;;;34.13;12.63;;;6.40;99.90;;;;;;6324882;22;20006;-89
2022/11/30 21:14:17;;;;;;;35.60;13.25;;;6.50;99.90;;;;;;6348932;22;20021;-90
2022/11/30 21:16:43;;;;;;;36.35;12.70;;;6.40;99.90;;;;;;6319401;22;20021;-88
2022/11/30 21:19:10;;;;;;;34.30;13.30;;;6.50;99.90;;;;;;6319067;22;20014;-89
2022/11/30 21:21:36;;;;;;;38.13;13.65;;;6.40;99.90;;;;;;6318390;22;20014;-89
2022/11/30 21:24:08;;;;;;;38.07;13.07;;;6.40;99.90;;;;;;6292656;22;20021;-88
2022/11/30 21:26:39;;;;;;;33.08;11.80;;;6.40;99.90;;;;;;6322165;22;20459;-88
2022/11/30 21:29:13;;;;;;;30.13;13.02;;;6.40;99.90;;;;;;6346768;22;20016;-87
2022/11/30 21:31:39;;;;;;;39.08;13.43;;;6.40;99.90;;;;;;6320064;22;20018;-88
2022/11/30 21:34:10;;;;;;;37.15;12.60;;;6.40;99.90;;;;;;6356428;22;20040;-89
2022/11/30 21:36:41;;;;;;;35.95;13.32;;;6.40;99.90;;;;;;6354239;22;20025;-89
2022/11/30 21:39:11;;;;;;;38.45;13.52;;;6.40;99.90;;;;;;6358506;22;20014;-87
2022/11/30 21:41:38;;;;;;;33.05;12.65;;;6.40;99.90;;;;;;6313417;22;20032;-89
2022/11/30 21:44:05;;;;;;;;;;;6.40;99.90;;;;;;6330691;22;20524;-89
2022/11/30 21:46:31;;;;;;;33.47;12.07;;;6.40;99.90;;;;;;6322372;22;19960;-90
2022/11/30 21:48:57;;;;;;;33.80;12.97;;;6.40;99.90;;;;;;6320330;22;20010;-89
2022/11/30 21:51:26;;;;;;;34.80;14.27;;;6.40;99.90;;;;;;6294510;22;20014;-87
2022/11/30 21:53:57;;;;;;;32.70;13.93;;;6.40;99.90;;;;;;6356802;22;20092;-89
2022/11/30 21:56:28;;;;;;;33.38;11.88;;;6.40;99.90;;;;;;6323552;22;20144;-88
2022/11/30 21:58:55;;;;;;;35.45;11.95;;;6.40;99.90;;;;;;6328138;22;20002;-89
2022/11/30 22:01:34;;;;;;;35.30;12.52;;;6.40;99.90;;;;;;6297895;22;20015;-90
2022/11/30 22:04:05;;;;;;;31.88;12.45;;;6.40;99.90;;;;;;6326293;22;20043;-89
2022/11/30 22:06:33;;;;;;;36.33;13.52;;;6.40;99.90;;;;;;6326839;22;20037;-89
2022/11/30 22:40:09;;;;;;;35.85;12.88;;;6.40;99.90;;;;;;6396729;22;20066;-92
